createdAt,value
2019-02-17T00:01:00.453Z,101923.66
2019-02-17T00:03:29.095Z,101930.77
2019-02-17T00:05:57.745Z,101934.32
2019-02-17T00:08:26.362Z,101933.44
2019-02-17T00:10:54.966Z,101933.89
2019-02-17T00:13:23.822Z,101931.34
2019-02-17T00:15:52.430Z,101937.17
2019-02-17T00:18:21.096Z,101936.85
2019-02-17T00:20:49.700Z,101934.58
2019-02-17T00:23:18.373Z,101935.01
2019-02-17T00:25:46.920Z,101936.03
2019-02-17T00:28:15.607Z,101937.52
2019-02-17T00:30:44.233Z,101937.52
2019-02-17T00:33:12.920Z,101934.94
2019-02-17T00:35:41.497Z,101932.76
2019-02-17T00:38:10.379Z,101925.97
2019-02-17T00:40:38.970Z,101926.53
2019-02-17T00:43:07.569Z,101925.40
2019-02-17T00:45:36.132Z,101925.56
2019-02-17T00:48:04.830Z,101931.11
2019-02-17T00:50:33.776Z,101936.69
2019-02-17T00:53:02.449Z,101935.53
2019-02-17T00:55:30.982Z,101927.94
2019-02-17T00:57:59.667Z,101924.28
2019-02-17T01:00:28.177Z,101932.19
2019-02-17T01:02:57.034Z,101924.31
2019-02-17T01:05:25.625Z,101930.59
2019-02-17T01:07:54.235Z,101932.34
2019-02-17T01:10:22.787Z,101933.69
2019-02-17T01:12:51.601Z,101941.19
2019-02-17T01:15:20.158Z,101937.48
2019-02-17T01:17:48.883Z,101935.69
2019-02-17T01:20:18.023Z,101935.36
2019-02-17T01:22:46.748Z,101937.66
2019-02-17T01:25:15.401Z,101939.08
2019-02-17T01:27:44.038Z,101942.21
2019-02-17T01:30:14.637Z,101943.31
2019-02-17T01:32:43.622Z,101939.59
2019-02-17T01:35:12.240Z,101939.34
2019-02-17T01:37:40.921Z,101943.70
2019-02-17T01:40:10.356Z,101939.52
2019-02-17T01:42:39.079Z,101940.81
2019-02-17T01:45:09.376Z,101933.61
2019-02-17T01:47:38.217Z,101942.02
2019-02-17T01:50:10.216Z,101932.77
2019-02-17T01:52:38.865Z,101940.56
2019-02-17T01:55:08.592Z,101941.40
2019-02-17T01:57:37.288Z,101942.53
2019-02-17T02:00:12.001Z,101947.98
2019-02-17T02:02:40.601Z,101942.20
2019-02-17T02:05:09.506Z,101942.42
2019-02-17T02:07:38.143Z,101939.08
2019-02-17T02:10:09.165Z,101934.34
2019-02-17T02:12:37.756Z,101934.97
2019-02-17T02:15:09.461Z,101931.48
2019-02-17T02:17:38.114Z,101929.96
2019-02-17T02:20:09.877Z,101925.27
2019-02-17T02:22:38.554Z,101923.55
2019-02-17T02:25:07.854Z,101930.08
2019-02-17T02:27:36.490Z,101931.31
2019-02-17T02:30:08.315Z,101936.04
2019-02-17T02:32:37.078Z,101939.00
2019-02-17T02:35:06.318Z,101935.02
2019-02-17T02:37:35.177Z,101934.89
2019-02-17T02:40:04.376Z,101929.30
2019-02-17T02:42:33.032Z,101934.45
2019-02-17T02:45:01.642Z,101933.69
2019-02-17T02:47:30.354Z,101931.70
2019-02-17T02:49:59.086Z,101932.64
2019-02-17T02:52:27.799Z,101934.42
2019-02-17T02:54:56.382Z,101930.21
2019-02-17T02:57:25.149Z,101932.98
2019-02-17T02:59:53.779Z,101928.03
2019-02-17T03:02:22.535Z,101934.11
2019-02-17T03:04:51.110Z,101932.30
2019-02-17T03:07:19.812Z,101934.87
2019-02-17T03:09:48.396Z,101930.85
2019-02-17T03:12:17.167Z,101940.91
2019-02-17T03:14:45.782Z,101934.99
2019-02-17T03:17:14.436Z,101938.97
2019-02-17T03:19:43.057Z,101945.85
2019-02-17T03:22:11.704Z,101944.69
2019-02-17T03:24:40.343Z,101941.66
2019-02-17T03:27:08.966Z,101945.77
2019-02-17T03:29:37.615Z,101946.52
2019-02-17T03:32:07.304Z,101946.16
2019-02-17T03:34:38.418Z,101951.73
2019-02-17T03:37:07.117Z,101951.97
2019-02-17T03:39:35.882Z,101954.30
2019-02-17T03:42:04.486Z,101951.39
2019-02-17T03:44:33.070Z,101950.94
2019-02-17T03:47:01.654Z,101947.59
2019-02-17T03:49:30.241Z,101948.65
2019-02-17T03:51:58.820Z,101950.56
2019-02-17T03:54:27.379Z,101942.03
2019-02-17T03:56:56.086Z,101942.71
2019-02-17T03:59:24.654Z,101949.88
2019-02-17T04:01:53.357Z,101950.11
2019-02-17T04:04:21.919Z,101953.70
2019-02-17T04:06:50.598Z,101948.77
2019-02-17T04:09:19.208Z,101956.81
2019-02-17T04:11:47.897Z,101956.76
2019-02-17T04:14:16.457Z,101958.70
2019-02-17T04:16:45.062Z,101958.08
2019-02-17T04:19:14.116Z,101958.88
2019-02-17T04:21:42.739Z,101956.48
2019-02-17T04:24:11.310Z,101953.80
2019-02-17T04:26:39.915Z,101957.98
2019-02-17T04:29:10.291Z,101955.47
2019-02-17T04:31:38.852Z,101954.06
2019-02-17T04:34:07.500Z,101956.03
2019-02-17T04:36:36.062Z,101948.34
2019-02-17T04:39:06.241Z,101947.95
2019-02-17T04:41:34.878Z,101950.71
2019-02-17T04:44:03.471Z,101957.50
2019-02-17T04:46:32.189Z,101949.70
2019-02-17T04:49:00.839Z,101945.77
2019-02-17T04:51:29.716Z,101948.17
2019-02-17T04:53:58.354Z,101948.64
2019-02-17T04:56:27.009Z,101948.64
2019-02-17T04:58:55.591Z,101952.92
2019-02-17T05:01:24.259Z,101942.42
2019-02-17T05:03:52.878Z,101943.47
2019-02-17T05:06:21.418Z,101938.27
2019-02-17T05:08:51.210Z,101935.63
2019-02-17T05:11:19.825Z,101937.36
2019-02-17T05:13:48.440Z,101933.95
2019-02-17T05:16:17.113Z,101936.25
2019-02-17T05:18:45.686Z,101933.02
2019-02-17T05:21:14.400Z,101932.13
2019-02-17T05:23:43.066Z,101938.62
2019-02-17T05:26:11.726Z,101938.77
2019-02-17T05:28:40.510Z,101944.90
2019-02-17T05:31:09.254Z,101944.66
2019-02-17T05:33:37.807Z,101946.44
2019-02-17T05:36:06.542Z,101947.78
2019-02-17T05:38:35.178Z,101947.80
2019-02-17T05:41:03.742Z,101945.50
2019-02-17T05:43:32.339Z,101948.66
2019-02-17T05:46:01.023Z,101940.72
2019-02-17T05:48:29.756Z,101952.74
2019-02-17T05:50:59.124Z,101954.83
2019-02-17T05:53:27.696Z,101951.96
2019-02-17T05:55:56.568Z,101961.33
2019-02-17T05:58:25.176Z,101958.20
2019-02-17T06:01:03.226Z,101954.14
2019-02-17T06:03:24.087Z,101954.81
2019-02-17T06:05:52.766Z,101952.12
2019-02-17T06:08:21.526Z,101957.89
2019-02-17T06:10:50.114Z,101958.13
2019-02-17T06:13:18.758Z,101949.55
2019-02-17T06:15:47.387Z,101951.06
2019-02-17T06:18:16.063Z,101958.01
2019-02-17T06:20:44.655Z,101967.92
2019-02-17T06:23:13.258Z,101963.62
2019-02-17T06:25:41.842Z,101968.55
2019-02-17T06:28:10.586Z,101973.34
2019-02-17T06:30:39.285Z,101972.76
2019-02-17T06:33:07.907Z,101972.09
2019-02-17T06:35:36.482Z,101968.00
2019-02-17T06:38:05.173Z,101970.06
2019-02-17T06:40:33.731Z,101972.31
2019-02-17T06:43:02.336Z,101974.89
2019-02-17T06:45:30.930Z,101983.19
2019-02-17T06:47:59.582Z,101980.38
2019-02-17T06:50:28.136Z,101983.19
2019-02-17T06:52:56.713Z,101984.86
2019-02-17T06:55:29.821Z,101984.02
2019-02-17T06:57:58.378Z,101988.39
2019-02-17T07:00:28.577Z,101986.72
2019-02-17T07:02:57.814Z,101991.58
2019-02-17T07:05:42.709Z,101986.06
2019-02-17T07:08:11.638Z,101990.40
2019-02-17T07:10:40.157Z,101997.34
2019-02-17T07:13:08.977Z,101994.22
2019-02-17T07:15:37.519Z,101996.68
2019-02-17T07:18:06.093Z,101991.97
2019-02-17T07:20:34.658Z,101994.10
2019-02-17T07:23:03.793Z,101990.64
2019-02-17T07:25:32.517Z,101995.13
2019-02-17T07:28:01.233Z,101982.88
2019-02-17T07:30:30.097Z,101984.91
2019-02-17T07:32:58.680Z,101987.84
2019-02-17T07:35:27.262Z,101992.06
2019-02-17T07:37:55.930Z,101999.00
2019-02-17T07:40:24.511Z,102003.61
2019-02-17T07:42:53.115Z,102006.80
2019-02-17T07:45:21.696Z,102003.80
2019-02-17T07:47:50.352Z,102006.87
2019-02-17T07:50:19.068Z,102007.75
2019-02-17T07:52:47.664Z,102004.80
2019-02-17T07:55:16.241Z,102011.83
2019-02-17T07:57:44.813Z,102008.94
2019-02-17T08:00:13.648Z,102004.74
2019-02-17T08:02:42.308Z,102007.50
2019-02-17T08:05:10.950Z,102001.13
2019-02-17T08:07:39.593Z,102010.86
2019-02-17T08:10:09.898Z,102011.17
2019-02-17T08:12:38.679Z,102011.00
2019-02-17T08:15:09.712Z,102004.65
2019-02-17T08:17:38.306Z,102013.00
2019-02-17T08:20:09.496Z,102015.14
2019-02-17T08:22:38.724Z,102017.45
2019-02-17T08:25:08.562Z,102014.42
2019-02-17T08:27:37.306Z,102014.95
2019-02-17T08:30:11.477Z,102014.80
2019-02-17T08:32:40.160Z,102018.28
2019-02-17T08:35:09.561Z,102017.66
2019-02-17T08:37:38.208Z,102019.36
2019-02-17T08:40:09.433Z,102017.93
2019-02-17T08:42:38.057Z,102027.66
2019-02-17T08:45:08.665Z,102023.34
2019-02-17T08:47:37.629Z,102019.52
2019-02-17T08:50:09.346Z,102022.64
2019-02-17T08:52:38.102Z,102016.97
2019-02-17T08:55:09.328Z,102013.77
2019-02-17T08:57:38.166Z,102019.90
2019-02-17T09:00:12.446Z,102018.73
2019-02-17T09:02:41.062Z,102020.67
2019-02-17T09:05:09.570Z,102011.48
2019-02-17T09:07:38.421Z,102007.88
2019-02-17T09:10:12.124Z,102006.13
2019-02-17T09:12:40.753Z,102011.65
2019-02-17T09:15:11.724Z,102021.14
2019-02-17T09:17:40.350Z,102016.70
2019-02-17T09:20:10.752Z,102010.66
2019-02-17T09:22:39.488Z,102005.64
2019-02-17T09:25:10.607Z,102005.77
2019-02-17T09:27:39.438Z,102001.26
2019-02-17T09:30:11.275Z,102000.13
2019-02-17T09:32:40.238Z,101995.91
2019-02-17T09:35:08.868Z,101995.19
2019-02-17T09:37:37.504Z,101988.23
2019-02-17T09:40:09.009Z,101984.03
2019-02-17T09:42:37.559Z,101989.30
2019-02-17T09:45:09.728Z,101988.89
2019-02-17T09:47:38.377Z,101987.01
2019-02-17T09:50:12.040Z,101992.03
2019-02-17T09:52:40.648Z,101986.25
2019-02-17T09:55:10.614Z,101986.41
2019-02-17T09:57:39.672Z,101984.80
2019-02-17T10:00:15.944Z,101999.95
2019-02-17T10:02:44.627Z,101987.02
2019-02-17T10:05:13.954Z,101983.89
2019-02-17T10:07:42.631Z,101987.33
2019-02-17T10:10:16.508Z,101991.89
2019-02-17T10:12:45.122Z,101991.14
2019-02-17T10:15:14.433Z,101999.14
2019-02-17T10:17:42.970Z,101995.87
2019-02-17T10:20:13.423Z,101992.73
2019-02-17T10:22:42.149Z,101984.77
2019-02-17T10:25:11.179Z,101985.03
2019-02-17T10:27:39.802Z,101986.31
2019-02-17T10:30:16.290Z,101985.90
2019-02-17T10:32:44.956Z,101980.48
2019-02-17T10:35:13.696Z,101976.67
2019-02-17T10:37:42.321Z,101983.73
2019-02-17T10:40:18.991Z,101973.41
2019-02-17T10:42:47.554Z,101975.48
2019-02-17T10:45:16.429Z,101969.02
2019-02-17T10:47:45.050Z,101962.06
2019-02-17T10:50:13.895Z,101961.17
2019-02-17T10:52:42.527Z,101960.61
2019-02-17T10:55:12.866Z,101952.33
2019-02-17T10:57:41.541Z,101944.37
2019-02-17T11:00:20.901Z,101934.48
2019-02-17T11:02:49.730Z,101942.17
2019-02-17T11:05:18.497Z,101936.33
2019-02-17T11:07:47.110Z,101934.45
2019-02-17T11:10:15.730Z,101929.41
2019-02-17T11:12:44.438Z,101921.27
2019-02-17T11:15:18.144Z,101916.36
2019-02-17T11:17:47.108Z,101909.33
2019-02-17T11:20:15.854Z,101920.30
2019-02-17T11:22:44.572Z,101911.87
2019-02-17T11:25:13.418Z,101905.92
2019-02-17T11:27:42.185Z,101904.70
2019-02-17T11:30:17.421Z,101894.89
2019-02-17T11:32:46.106Z,101900.84
2019-02-17T11:35:14.812Z,101889.14
2019-02-17T11:37:45.186Z,101890.38
2019-02-17T11:40:13.998Z,101894.61
2019-02-17T11:42:42.911Z,101894.02
2019-02-17T11:45:15.152Z,101892.93
2019-02-17T11:47:44.016Z,101890.00
2019-02-17T11:50:12.750Z,101881.13
2019-02-17T11:52:41.413Z,101885.72
2019-02-17T11:55:12.177Z,101891.29
2019-02-17T11:57:41.971Z,101897.44
2019-02-17T12:00:13.934Z,101891.06
2019-02-17T12:02:43.196Z,101893.81
2019-02-17T12:05:12.237Z,101898.52
2019-02-17T12:07:40.878Z,101893.21
2019-02-17T12:10:11.814Z,101887.77
2019-02-17T12:12:42.187Z,101886.79
2019-02-17T12:15:13.166Z,101885.70
2019-02-17T12:17:42.042Z,101883.20
2019-02-17T12:20:33.898Z,101883.55
2019-02-17T12:23:04.298Z,101880.61
2019-02-17T12:25:34.735Z,101870.33
2019-02-17T12:28:07.884Z,101869.93
2019-02-17T12:30:37.418Z,101877.02
2019-02-17T12:33:06.181Z,101877.63
2019-02-17T12:35:35.169Z,101864.93
2019-02-17T12:38:04.042Z,101854.22
2019-02-17T12:40:32.737Z,101861.33
2019-02-17T12:43:01.813Z,101854.61
2019-02-17T12:45:30.652Z,101868.08
2019-02-17T12:47:59.373Z,101852.38
2019-02-17T12:50:28.159Z,101840.81
2019-02-17T12:52:56.777Z,101835.31
2019-02-17T12:55:25.462Z,101827.50
2019-02-17T12:57:54.048Z,101836.28
2019-02-17T13:00:24.308Z,101831.14
2019-02-17T13:02:53.053Z,101834.24
2019-02-17T13:05:21.617Z,101829.17
2019-02-17T13:07:50.406Z,101828.91
2019-02-17T13:10:18.920Z,101831.20
2019-02-17T13:12:47.655Z,101830.61
2019-02-17T13:15:16.310Z,101831.00
2019-02-17T13:17:44.918Z,101829.00
2019-02-17T13:20:14.882Z,101826.80
2019-02-17T13:22:43.584Z,101826.01
2019-02-17T13:25:16.758Z,101831.64
2019-02-17T13:27:45.691Z,101822.62
2019-02-17T13:30:20.048Z,101819.06
2019-02-17T13:32:48.872Z,101822.82
2019-02-17T13:35:17.859Z,101814.61
2019-02-17T13:37:47.175Z,101826.70
2019-02-17T13:40:15.850Z,101827.09
2019-02-17T13:42:44.622Z,101829.41
2019-02-17T13:45:15.726Z,101830.80
2019-02-17T13:47:44.582Z,101827.89
2019-02-17T13:50:15.449Z,101814.18
2019-02-17T13:52:44.075Z,101813.77
2019-02-17T13:55:12.728Z,101805.91
2019-02-17T13:57:41.752Z,101806.34
2019-02-17T14:00:15.563Z,101807.82
2019-02-17T14:02:44.189Z,101809.52
2019-02-17T14:05:12.753Z,101809.86
2019-02-17T14:07:41.678Z,101797.15
2019-02-17T14:10:14.126Z,101799.28
2019-02-17T14:12:42.996Z,101794.59
2019-02-17T14:15:14.815Z,101791.05
2019-02-17T14:17:43.453Z,101783.09
2019-02-17T14:20:12.060Z,101787.52
2019-02-17T14:22:40.725Z,101785.48
2019-02-17T14:25:11.954Z,101784.35
2019-02-17T14:27:40.625Z,101788.21
2019-02-17T14:30:17.533Z,101776.44
2019-02-17T14:32:46.300Z,101771.34
2019-02-17T14:35:14.896Z,101767.66
2019-02-17T14:37:43.569Z,101768.61
2019-02-17T14:40:14.127Z,101772.39
2019-02-17T14:42:44.013Z,101769.54
2019-02-17T14:45:14.216Z,101771.59
2019-02-17T14:47:43.518Z,101765.56
2019-02-17T14:50:13.732Z,101755.95
2019-02-17T14:52:42.390Z,101755.28
2019-02-17T14:55:14.044Z,101748.70
2019-02-17T14:57:42.782Z,101752.08
2019-02-17T15:00:13.904Z,101740.84
2019-02-17T15:02:42.692Z,101739.52
2019-02-17T15:05:11.795Z,101739.24
2019-02-17T15:07:40.598Z,101734.36
2019-02-17T15:10:11.055Z,101733.81
2019-02-17T15:12:40.151Z,101736.21
2019-02-17T15:15:13.713Z,101735.17
2019-02-17T15:17:42.828Z,101731.19
2019-02-17T15:20:13.938Z,101732.30
2019-02-17T15:22:42.978Z,101725.41
2019-02-17T15:25:12.314Z,101723.28
2019-02-17T15:27:41.087Z,101720.78
2019-02-17T15:30:12.559Z,101712.28
2019-02-17T15:32:41.160Z,101711.97
2019-02-17T15:35:09.824Z,101706.99
2019-02-17T15:37:38.550Z,101709.81
2019-02-17T15:40:10.984Z,101702.68
2019-02-17T15:42:39.589Z,101695.54
2019-02-17T15:45:12.732Z,101694.44
2019-02-17T15:47:41.538Z,101691.71
2019-02-17T15:50:11.712Z,101690.32
2019-02-17T15:52:40.290Z,101684.52
2019-02-17T15:55:11.463Z,101680.98
2019-02-17T15:57:40.165Z,101677.93
2019-02-17T16:00:16.872Z,101670.22
2019-02-17T16:02:45.648Z,101671.03
2019-02-17T16:05:14.412Z,101670.08
2019-02-17T16:07:43.240Z,101667.83
2019-02-17T16:10:13.228Z,101673.19
2019-02-17T16:12:41.975Z,101671.70
2019-02-17T16:15:19.611Z,101667.17
2019-02-17T16:17:48.177Z,101674.05
2019-02-17T16:20:16.727Z,101671.22
2019-02-17T16:22:45.328Z,101669.81
2019-02-17T16:25:13.931Z,101668.90
2019-02-17T16:27:42.502Z,101667.56
2019-02-17T16:30:28.511Z,101670.71
2019-02-17T16:32:57.407Z,101669.58
2019-02-17T16:35:25.897Z,101670.58
2019-02-17T16:37:54.405Z,101679.36
2019-02-17T16:40:22.904Z,101673.94
2019-02-17T16:42:51.460Z,101673.21
2019-02-17T16:45:20.365Z,101672.36
2019-02-17T16:47:48.917Z,101681.06
2019-02-17T16:50:20.589Z,101686.77
2019-02-17T16:52:49.144Z,101682.89
2019-02-17T16:55:17.626Z,101683.50
2019-02-17T16:57:46.267Z,101681.69
2019-02-17T17:00:22.948Z,101686.77
2019-02-17T17:02:52.913Z,101690.55
2019-02-17T17:05:22.448Z,101691.83
2019-02-17T17:07:51.150Z,101693.75
2019-02-17T17:10:19.688Z,101695.73
2019-02-17T17:12:48.217Z,101694.27
2019-02-17T17:15:17.276Z,101690.00
2019-02-17T17:17:45.811Z,101685.61
2019-02-17T17:20:22.156Z,101679.17
2019-02-17T17:22:50.952Z,101679.09
2019-02-17T17:25:19.466Z,101680.80
2019-02-17T17:27:48.115Z,101682.09
2019-02-17T17:30:18.032Z,101677.23
2019-02-17T17:32:46.578Z,101678.84
2019-02-17T17:35:15.050Z,101669.73
2019-02-17T17:37:45.360Z,101676.38
2019-02-17T17:40:15.519Z,101671.52
2019-02-17T17:42:44.127Z,101676.24
2019-02-17T17:45:17.863Z,101677.02
2019-02-17T17:47:46.496Z,101668.13
2019-02-17T17:50:15.824Z,101677.46
2019-02-17T17:52:44.412Z,101676.83
2019-02-17T17:55:13.744Z,101665.55
2019-02-17T17:57:42.363Z,101673.88
2019-02-17T18:00:19.663Z,101664.88
2019-02-17T18:02:48.199Z,101667.59
2019-02-17T18:05:16.683Z,101672.30
2019-02-17T18:07:45.293Z,101666.72
2019-02-17T18:10:17.383Z,101660.30
2019-02-17T18:12:45.947Z,101664.91
2019-02-17T18:15:18.475Z,101663.59
2019-02-17T18:17:54.600Z,101664.16
2019-02-17T18:20:19.237Z,101655.52
2019-02-17T18:22:47.966Z,101659.42
2019-02-17T18:25:16.589Z,101653.34
2019-02-17T18:27:45.157Z,101650.04
2019-02-17T18:30:18.984Z,101654.56
2019-02-17T18:32:47.592Z,101653.76
2019-02-17T18:35:20.118Z,101656.34
2019-02-17T18:37:46.462Z,101652.38
2019-02-17T18:40:17.932Z,101656.86
2019-02-17T18:42:46.498Z,101652.45
2019-02-17T18:45:16.084Z,101654.13
2019-02-17T18:47:44.645Z,101657.16
2019-02-17T18:50:14.600Z,101661.38
2019-02-17T18:52:43.127Z,101661.38
2019-02-17T18:55:13.045Z,101661.81
2019-02-17T18:57:49.507Z,101663.54
2019-02-17T19:00:23.498Z,101653.28
2019-02-17T19:02:52.134Z,101660.19
2019-02-17T19:05:31.108Z,101660.92
2019-02-17T19:07:51.332Z,101655.75
2019-02-17T19:10:19.957Z,101654.45
2019-02-17T19:12:48.613Z,101656.34
2019-02-17T19:15:19.369Z,101651.80
2019-02-17T19:17:48.262Z,101656.19
2019-02-17T19:20:20.010Z,101653.63
2019-02-17T19:22:48.550Z,101657.82
2019-02-17T19:25:17.049Z,101656.61
2019-02-17T19:27:45.618Z,101653.16
2019-02-17T19:30:15.755Z,101653.84
2019-02-17T19:32:44.656Z,101646.44
2019-02-17T19:35:14.916Z,101645.02
2019-02-17T19:37:43.503Z,101645.08
2019-02-17T19:40:15.214Z,101647.89
2019-02-17T19:42:44.129Z,101646.06
2019-02-17T19:45:15.807Z,101636.63
2019-02-17T19:47:44.405Z,101641.21
2019-02-17T19:50:14.202Z,101640.80
2019-02-17T19:52:42.811Z,101640.39
2019-02-17T19:55:12.834Z,101639.34
2019-02-17T19:57:41.805Z,101639.86
2019-02-17T20:00:17.421Z,101637.83
2019-02-17T20:03:03.821Z,101638.92
2019-02-17T20:05:51.693Z,101643.98
2019-02-17T20:08:13.819Z,101640.75
2019-02-17T20:10:42.417Z,101646.55
2019-02-17T20:13:10.977Z,101647.38
2019-02-17T20:15:39.487Z,101642.52
2019-02-17T20:18:08.041Z,101637.91
2019-02-17T20:20:36.980Z,101636.77
2019-02-17T20:23:05.611Z,101638.39
2019-02-17T20:25:34.102Z,101634.73
2019-02-17T20:28:02.601Z,101632.85
2019-02-17T20:30:31.145Z,101634.89
2019-02-17T20:32:59.820Z,101636.72
2019-02-17T20:35:28.369Z,101635.39
2019-02-17T20:37:56.967Z,101633.70
2019-02-17T20:40:25.559Z,101629.23
2019-02-17T20:42:54.208Z,101636.98
2019-02-17T20:45:22.718Z,101634.58
2019-02-17T20:47:51.310Z,101638.83
2019-02-17T20:50:20.300Z,101637.40
2019-02-17T20:52:48.845Z,101636.43
2019-02-17T20:55:17.394Z,101632.72
2019-02-17T20:57:45.974Z,101631.36
2019-02-17T21:00:18.253Z,101631.70
2019-02-17T21:02:46.846Z,101630.45
2019-02-17T21:05:15.964Z,101629.31
2019-02-17T21:07:44.578Z,101621.57
2019-02-17T21:10:14.753Z,101623.55
2019-02-17T21:12:43.411Z,101624.79
2019-02-17T21:15:21.907Z,101622.53
2019-02-17T21:17:51.054Z,101624.31
2019-02-17T21:20:20.523Z,101626.33
2019-02-17T21:22:49.181Z,101623.79
2019-02-17T21:25:17.718Z,101622.95
2019-02-17T21:27:46.405Z,101629.17
2019-02-17T21:30:19.595Z,101636.78
2019-02-17T21:32:48.777Z,101630.66
2019-02-17T21:35:17.696Z,101619.89
2019-02-17T21:37:46.390Z,101622.61
2019-02-17T21:40:15.289Z,101626.84
2019-02-17T21:42:43.980Z,101619.72
2019-02-17T21:45:14.707Z,101618.08
2019-02-17T21:47:43.285Z,101620.05
2019-02-17T21:50:15.710Z,101617.41
2019-02-17T21:52:44.345Z,101622.51
2019-02-17T21:55:14.485Z,101614.70
2019-02-17T21:57:43.086Z,101620.12
2019-02-17T22:00:19.944Z,101618.77
2019-02-17T22:02:49.443Z,101617.95
2019-02-17T22:05:18.228Z,101621.80
2019-02-17T22:07:46.917Z,101618.27
2019-02-17T22:10:17.184Z,101618.52
2019-02-17T22:12:45.823Z,101610.41
2019-02-17T22:15:16.628Z,101608.56
2019-02-17T22:17:46.288Z,101610.06
2019-02-17T22:20:14.934Z,101603.92
2019-02-17T22:22:43.515Z,101599.58
2019-02-17T22:25:13.229Z,101604.53
2019-02-17T22:27:41.865Z,101606.45
2019-02-17T22:30:14.929Z,101604.24
2019-02-17T22:32:43.687Z,101601.03
2019-02-17T22:35:12.299Z,101594.45
2019-02-17T22:37:40.950Z,101589.13
2019-02-17T22:40:16.482Z,101588.19
2019-02-17T22:42:45.034Z,101583.09
2019-02-17T22:45:14.891Z,101587.13
2019-02-17T22:47:43.533Z,101587.06
2019-02-17T22:50:13.787Z,101585.94
2019-02-17T22:52:42.300Z,101582.33
2019-02-17T22:55:12.190Z,101579.31
2019-02-17T22:57:40.764Z,101580.73
2019-02-17T23:00:40.932Z,101574.58
2019-02-17T23:03:09.938Z,101573.56
2019-02-17T23:05:38.790Z,101581.05
2019-02-17T23:08:07.750Z,101576.49
2019-02-17T23:10:36.299Z,101575.06
2019-02-17T23:13:04.882Z,101576.02
2019-02-17T23:15:33.519Z,101578.61
2019-02-17T23:18:02.111Z,101570.83
2019-02-17T23:20:30.995Z,101569.67
2019-02-17T23:22:59.527Z,101577.61
2019-02-17T23:25:28.126Z,101579.26
2019-02-17T23:27:56.753Z,101578.77
2019-02-17T23:30:25.273Z,101577.13
2019-02-17T23:32:53.929Z,101567.89
2019-02-17T23:35:22.450Z,101574.37
2019-02-17T23:37:51.042Z,101570.69
2019-02-17T23:40:19.591Z,101570.67
2019-02-17T23:42:48.149Z,101578.22
2019-02-17T23:45:16.666Z,101574.60
2019-02-17T23:47:45.272Z,101579.15
2019-02-17T23:50:14.555Z,101568.08
2019-02-17T23:52:43.744Z,101567.24
2019-02-17T23:55:12.608Z,101565.80
2019-02-17T23:57:41.240Z,101563.28
